createdAt,value
2022-11-08T00:00:10.016Z,21.67
2022-11-08T00:02:37.197Z,21.50
2022-11-08T00:05:23.402Z,27.85
2022-11-08T00:08:09.101Z,29.92
2022-11-08T00:10:54.753Z,27.30
2022-11-08T00:13:40.682Z,20.27
2022-11-08T00:16:07.870Z,23.30
2022-11-08T00:18:34.878Z,20.05
2022-11-08T00:21:03.369Z,21.33
2022-11-08T00:23:30.748Z,24.83
2022-11-08T00:25:58.136Z,20.13
2022-11-08T00:28:25.448Z,20.35
2022-11-08T00:30:52.483Z,27.40
2022-11-08T00:33:19.526Z,20.83
2022-11-08T00:35:46.538Z,31.90
2022-11-08T00:38:13.564Z,21.08
2022-11-08T00:40:40.545Z,23.02
2022-11-08T00:43:07.546Z,24.13
2022-11-08T00:45:34.536Z,25.02
2022-11-08T00:48:01.516Z,26.60
2022-11-08T00:50:28.573Z,21.25
2022-11-08T00:52:55.589Z,19.45
2022-11-08T00:55:22.667Z,22.10
2022-11-08T00:58:04.679Z,20.85
2022-11-08T01:00:31.688Z,23.05
2022-11-08T01:03:17.587Z,16.60
2022-11-08T01:05:45.070Z,16.42
2022-11-08T01:08:13.657Z,22.48
2022-11-08T01:10:45.498Z,28.50
2022-11-08T01:13:13.212Z,18.55
2022-11-08T01:15:43.145Z,26.50
2022-11-08T01:18:11.550Z,25.38
2022-11-08T01:20:58.492Z,33.33
2022-11-08T01:23:25.541Z,25.13
2022-11-08T01:25:52.574Z,22.67
2022-11-08T01:42:15.819Z,17.02
2022-11-08T01:45:02.470Z,26.42
2022-11-08T01:47:29.590Z,23.35
2022-11-08T01:50:01.594Z,21.45
2022-11-08T01:52:32.044Z,21.05
2022-11-08T01:55:10.124Z,23.85
2022-11-08T01:57:44.609Z,23.60
2022-11-08T02:00:15.766Z,15.68
2022-11-08T02:16:59.943Z,18.38
2022-11-08T02:19:46.811Z,17.10
2022-11-08T02:22:23.159Z,11.35
2022-11-08T02:24:50.259Z,13.57
2022-11-08T02:27:17.382Z,12.50
2022-11-08T02:29:44.478Z,10.18
2022-11-08T02:32:12.834Z,11.90
2022-11-08T02:34:56.783Z,10.50
2022-11-08T02:37:24.539Z,10.73
2022-11-08T02:39:51.570Z,14.13
2022-11-08T02:42:20.451Z,12.10
2022-11-08T02:44:47.976Z,7.15
2022-11-08T02:47:15.506Z,12.93
2022-11-08T02:49:42.881Z,7.32
2022-11-08T02:52:10.013Z,9.98
2022-11-08T02:54:37.083Z,10.13
2022-11-08T02:57:04.216Z,10.02
2022-11-08T02:59:31.177Z,10.27
2022-11-08T03:01:58.568Z,11.82
2022-11-08T03:04:25.659Z,10.85
2022-11-08T03:06:52.640Z,9.25
2022-11-08T03:09:19.717Z,10.43
2022-11-08T03:11:46.945Z,11.60
2022-11-08T03:14:13.985Z,11.27
2022-11-08T03:16:41.010Z,14.90
2022-11-08T03:19:08.115Z,10.88
2022-11-08T03:21:36.924Z,11.27
2022-11-08T03:24:05.543Z,8.10
2022-11-08T03:26:33.090Z,8.75
2022-11-08T03:29:00.266Z,10.35
2022-11-08T03:31:33.323Z,8.60
2022-11-08T03:34:00.321Z,9.18
2022-11-08T03:36:27.442Z,7.82
2022-11-08T03:38:54.792Z,10.68
2022-11-08T03:41:21.824Z,8.48
2022-11-08T03:43:48.893Z,10.90
2022-11-08T03:46:16.005Z,11.45
2022-11-08T03:48:43.079Z,13.23
2022-11-08T03:51:10.222Z,12.23
2022-11-08T03:53:37.587Z,12.25
2022-11-08T03:56:04.942Z,15.57
2022-11-08T03:58:32.007Z,17.52
2022-11-08T04:00:59.254Z,12.25
2022-11-08T04:03:26.283Z,11.02
2022-11-08T04:05:53.314Z,16.30
2022-11-08T04:08:20.602Z,13.73
2022-11-08T04:10:48.018Z,9.40
2022-11-08T04:13:33.675Z,13.13
2022-11-08T04:16:00.806Z,13.82
2022-11-08T04:18:46.578Z,12.05
2022-11-08T04:21:20.404Z,10.35
